createdAt,value
2022-10-11T00:01:43.998Z,100.00
2022-10-11T00:04:10.763Z,100.00
2022-10-11T00:06:38.383Z,100.00
2022-10-11T00:09:06.123Z,100.00
2022-10-11T00:11:33.050Z,100.00
2022-10-11T00:13:59.685Z,100.00
2022-10-11T00:16:26.422Z,100.00
2022-10-11T00:18:53.195Z,100.00
2022-10-11T00:21:21.076Z,100.00
2022-10-11T00:23:48.712Z,100.00
2022-10-11T00:26:15.556Z,100.00
2022-10-11T00:28:42.563Z,100.00
2022-10-11T00:31:13.127Z,100.00
2022-10-11T00:33:40.251Z,100.00
2022-10-11T00:36:08.985Z,100.00
2022-10-11T00:38:35.976Z,100.00
2022-10-11T00:41:02.619Z,100.00
2022-10-11T00:43:31.006Z,100.00
2022-10-11T00:45:57.688Z,100.00
2022-10-11T00:48:47.402Z,100.00
2022-10-11T00:51:23.511Z,100.00
2022-10-11T00:53:51.888Z,100.00
2022-10-11T00:56:26.381Z,100.00
2022-10-11T00:58:54.809Z,100.00
2022-10-11T01:01:21.916Z,100.00
2022-10-11T01:03:48.588Z,100.00
2022-10-11T01:06:16.141Z,100.00
2022-10-11T01:08:44.149Z,100.00
2022-10-11T01:11:17.974Z,100.00
2022-10-11T01:14:31.813Z,100.00
2022-10-11T01:17:17.400Z,100.00
2022-10-11T01:19:59.192Z,100.00
2022-10-11T01:22:48.882Z,100.00
2022-10-11T01:25:32.747Z,100.00
2022-10-11T01:28:15.465Z,100.00
2022-10-11T01:30:42.979Z,100.00
2022-10-11T01:33:18.035Z,100.00
2022-10-11T01:36:09.334Z,100.00
2022-10-11T01:38:52.039Z,100.00
2022-10-11T01:41:28.204Z,100.00
2022-10-11T01:43:59.708Z,100.00
2022-10-11T01:46:29.010Z,100.00
2022-10-11T01:48:58.444Z,100.00
2022-10-11T01:51:29.904Z,100.00
2022-10-11T01:54:06.992Z,100.00
2022-10-11T01:57:20.310Z,100.00
2022-10-11T01:59:58.940Z,100.00
2022-10-11T02:02:46.548Z,100.00
2022-10-11T02:05:31.551Z,100.00
2022-10-11T02:08:18.087Z,100.00
2022-10-11T02:10:55.013Z,100.00
2022-10-11T02:13:34.198Z,100.00
2022-10-11T02:16:03.920Z,100.00
2022-10-11T02:18:36.715Z,100.00
2022-10-11T02:21:08.674Z,100.00
2022-10-11T02:23:43.175Z,100.00
2022-10-11T02:26:12.196Z,100.00
2022-10-11T02:28:42.293Z,100.00
2022-10-11T02:31:11.365Z,100.00
2022-10-11T02:33:44.291Z,100.00
2022-10-11T02:36:26.905Z,100.00
2022-10-11T02:38:59.091Z,100.00
2022-10-11T02:41:31.238Z,100.00
2022-10-11T02:44:04.229Z,100.00
2022-10-11T02:46:31.484Z,100.00
2022-10-11T02:48:59.812Z,100.00
2022-10-11T02:51:33.396Z,100.00
2022-10-11T02:54:00.461Z,100.00
2022-10-11T02:56:27.084Z,100.00
2022-10-11T02:58:53.773Z,100.00
2022-10-11T03:01:20.872Z,100.00
2022-10-11T03:03:47.582Z,100.00
2022-10-11T03:06:14.373Z,100.00
2022-10-11T03:08:41.098Z,100.00
2022-10-11T03:11:07.940Z,100.00
2022-10-11T03:13:34.772Z,100.00
2022-10-11T03:16:07.333Z,100.00
2022-10-11T03:18:34.328Z,100.00
2022-10-11T03:21:01.002Z,100.00
2022-10-11T03:23:27.618Z,100.00
2022-10-11T03:25:54.380Z,100.00
2022-10-11T03:28:21.472Z,100.00
2022-10-11T03:30:52.240Z,100.00
2022-10-11T03:33:19.628Z,100.00
2022-10-11T03:35:47.957Z,100.00
2022-10-11T03:38:20.536Z,100.00
2022-10-11T03:40:47.291Z,100.00
2022-10-11T03:43:14.248Z,100.00
2022-10-11T03:45:43.785Z,100.00
2022-10-11T03:48:11.060Z,100.00
2022-10-11T03:50:38.294Z,100.00
2022-10-11T03:53:06.766Z,100.00
2022-10-11T03:55:33.554Z,100.00
2022-10-11T03:58:00.341Z,100.00
2022-10-11T04:00:27.009Z,100.00
2022-10-11T04:02:53.625Z,100.00
2022-10-11T04:05:21.378Z,100.00
2022-10-11T04:07:48.029Z,100.00
2022-10-11T04:10:14.649Z,100.00
2022-10-11T04:12:41.373Z,100.00
2022-10-11T04:15:08.326Z,100.00
2022-10-11T04:17:34.928Z,100.00
2022-10-11T04:20:01.723Z,100.00
2022-10-11T04:22:28.497Z,100.00
2022-10-11T04:24:55.240Z,100.00
2022-10-11T04:27:21.840Z,100.00
2022-10-11T04:29:48.552Z,100.00
2022-10-11T04:32:15.247Z,100.00
2022-10-11T04:34:42.095Z,100.00
2022-10-11T04:37:08.755Z,100.00
2022-10-11T04:39:35.391Z,100.00
2022-10-11T04:42:02.015Z,100.00
2022-10-11T04:44:28.661Z,100.00
2022-10-11T04:46:55.315Z,100.00
2022-10-11T04:49:22.205Z,100.00
2022-10-11T04:51:48.961Z,100.00
2022-10-11T04:54:16.104Z,100.00
2022-10-11T04:56:42.760Z,100.00
2022-10-11T04:59:09.533Z,100.00
2022-10-11T05:01:36.241Z,100.00
2022-10-11T05:04:03.441Z,100.00
2022-10-11T05:06:30.144Z,100.00
2022-10-11T05:08:56.772Z,100.00
2022-10-11T05:11:23.383Z,100.00
2022-10-11T05:13:50.096Z,100.00
2022-10-11T05:16:17.694Z,100.00
2022-10-11T05:18:44.832Z,100.00
2022-10-11T05:21:16.610Z,100.00
2022-10-11T05:23:43.298Z,100.00
2022-10-11T05:26:10.163Z,100.00
2022-10-11T05:28:36.884Z,100.00
2022-10-11T05:31:04.056Z,100.00
2022-10-11T05:33:30.921Z,100.00
2022-10-11T05:35:57.656Z,100.00
2022-10-11T05:38:24.397Z,100.00
2022-10-11T05:40:51.715Z,100.00
2022-10-11T05:43:18.683Z,100.00
2022-10-11T05:45:45.536Z,100.00
2022-10-11T05:48:13.057Z,100.00
2022-10-11T05:50:39.812Z,100.00
2022-10-11T05:53:07.158Z,100.00
2022-10-11T05:55:42.423Z,100.00
2022-10-11T05:58:13.085Z,100.00
2022-10-11T06:00:39.932Z,100.00
2022-10-11T06:03:07.962Z,100.00
2022-10-11T06:05:35.413Z,100.00
2022-10-11T06:08:03.134Z,100.00
2022-10-11T06:10:29.953Z,100.00
2022-10-11T06:12:56.571Z,100.00
2022-10-11T06:15:23.591Z,100.00
2022-10-11T06:17:50.419Z,100.00
2022-10-11T06:20:17.490Z,100.00
2022-10-11T06:22:44.126Z,100.00
2022-10-11T06:25:10.919Z,100.00
2022-10-11T06:27:37.904Z,100.00
2022-10-11T06:30:05.511Z,100.00
2022-10-11T06:32:32.269Z,100.00
2022-10-11T06:34:58.865Z,100.00
2022-10-11T06:37:25.507Z,100.00
2022-10-11T06:39:52.184Z,100.00
2022-10-11T06:42:18.858Z,100.00
2022-10-11T06:44:45.509Z,100.00
2022-10-11T06:47:12.215Z,100.00
2022-10-11T06:49:38.865Z,100.00
2022-10-11T06:52:05.566Z,100.00
2022-10-11T06:54:32.159Z,100.00
2022-10-11T06:56:59.301Z,100.00
2022-10-11T06:59:25.968Z,100.00
2022-10-11T07:01:52.577Z,100.00
2022-10-11T07:04:19.219Z,100.00
2022-10-11T07:06:45.841Z,100.00
2022-10-11T07:09:12.581Z,100.00
2022-10-11T07:11:39.233Z,100.00
2022-10-11T07:14:07.983Z,100.00
2022-10-11T07:16:36.682Z,100.00
2022-10-11T07:19:05.631Z,100.00
2022-10-11T07:21:33.459Z,100.00
2022-10-11T07:24:00.461Z,100.00
2022-10-11T07:26:28.009Z,100.00
2022-10-11T07:28:54.701Z,100.00
2022-10-11T07:31:23.799Z,100.00
2022-10-11T07:33:50.975Z,100.00
2022-10-11T07:36:17.930Z,100.00
2022-10-11T07:38:46.701Z,100.00
2022-10-11T07:41:14.052Z,100.00
2022-10-11T07:43:43.296Z,100.00
2022-10-11T07:46:11.206Z,100.00
2022-10-11T07:48:38.342Z,94.24
2022-10-11T07:51:15.192Z,92.05
2022-10-11T07:53:49.535Z,92.47
2022-10-11T07:56:18.813Z,90.38
2022-10-11T07:58:50.330Z,92.24
2022-10-11T08:01:17.520Z,89.19
2022-10-11T08:03:44.322Z,90.14
2022-10-11T08:06:13.668Z,89.10
2022-10-11T08:08:40.249Z,89.05
2022-10-11T08:11:07.528Z,87.96
2022-10-11T08:13:34.384Z,87.15
2022-10-11T08:16:01.797Z,83.98
2022-10-11T08:18:28.654Z,82.36
2022-10-11T08:20:55.299Z,81.96
2022-10-11T08:23:21.918Z,82.96
2022-10-11T08:25:49.011Z,83.28
2022-10-11T08:28:17.913Z,82.73
2022-10-11T08:30:53.214Z,84.23
2022-10-11T08:33:21.449Z,83.15
2022-10-11T08:35:50.276Z,82.50
2022-10-11T08:38:18.075Z,81.69
2022-10-11T08:40:49.968Z,82.18
2022-10-11T08:43:36.163Z,77.31
2022-10-11T08:46:05.913Z,75.14
2022-10-11T08:48:55.006Z,76.60
2022-10-11T08:51:21.567Z,76.52
2022-10-11T08:54:11.788Z,77.87
2022-10-11T08:56:40.079Z,75.70
2022-10-11T08:59:12.833Z,76.09
2022-10-11T09:01:52.905Z,77.88
2022-10-11T09:04:19.941Z,75.78
2022-10-11T09:07:23.856Z,75.35
2022-10-11T09:10:08.924Z,74.05
2022-10-11T09:12:49.579Z,75.18
2022-10-11T09:15:28.919Z,73.97
2022-10-11T09:18:20.276Z,74.21
2022-10-11T09:20:46.888Z,73.25
2022-10-11T09:23:52.291Z,71.50
2022-10-11T09:26:27.812Z,69.96
2022-10-11T09:29:28.417Z,69.19
2022-10-11T09:31:57.231Z,69.33
2022-10-11T09:34:32.352Z,68.25
2022-10-11T09:37:38.094Z,68.74
2022-10-11T09:40:10.856Z,68.62
2022-10-11T09:42:37.552Z,69.77
2022-10-11T09:45:18.142Z,68.53
2022-10-11T09:47:45.224Z,67.17
2022-10-11T09:50:22.044Z,67.28
2022-10-11T09:52:51.256Z,66.28
2022-10-11T09:55:46.524Z,66.69
2022-10-11T09:58:40.268Z,65.66
2022-10-11T10:01:09.563Z,62.71
2022-10-11T10:03:41.740Z,61.91
2022-10-11T10:06:32.610Z,63.50
2022-10-11T10:09:21.416Z,62.95
2022-10-11T10:11:48.335Z,63.34
2022-10-11T10:14:27.512Z,65.27
2022-10-11T10:17:06.613Z,65.50
2022-10-11T10:19:45.069Z,65.69
2022-10-11T10:22:22.429Z,67.00
2022-10-11T10:24:51.400Z,66.21
2022-10-11T10:27:24.477Z,64.16
2022-10-11T10:30:09.750Z,63.82
2022-10-11T10:32:53.338Z,62.64
2022-10-11T10:35:30.406Z,63.36
2022-10-11T10:38:08.498Z,65.02
2022-10-11T10:40:41.167Z,62.91
2022-10-11T10:43:15.701Z,62.83
2022-10-11T10:46:08.958Z,62.33
2022-10-11T10:52:19.966Z,61.22
2022-10-11T10:55:00.376Z,59.15
2022-10-11T10:57:49.037Z,60.53
2022-10-11T11:00:19.628Z,57.88
2022-10-11T11:03:03.008Z,58.99
2022-10-11T11:05:57.480Z,58.65
2022-10-11T11:08:38.777Z,59.52
2022-10-11T11:11:29.524Z,58.72
2022-10-11T11:14:10.207Z,58.33
2022-10-11T11:17:10.448Z,59.07
2022-10-11T11:19:41.520Z,58.38
2022-10-11T11:22:59.624Z,58.37
2022-10-11T11:25:58.659Z,58.26
2022-10-11T11:28:49.600Z,58.70
2022-10-11T11:31:41.360Z,59.92
2022-10-11T11:34:22.218Z,60.50
2022-10-11T11:37:15.358Z,61.78
2022-10-11T11:39:49.976Z,60.03
2022-10-11T11:42:16.508Z,61.02
2022-10-11T11:44:48.012Z,60.03
2022-10-11T11:47:40.654Z,59.41
2022-10-11T11:50:22.228Z,60.58
2022-10-11T11:53:00.550Z,58.88
2022-10-11T11:55:32.384Z,59.19
2022-10-11T11:58:11.248Z,58.99
2022-10-11T12:00:55.020Z,59.21
2022-10-11T12:03:27.539Z,58.31
2022-10-11T12:06:12.594Z,55.57
2022-10-11T12:08:43.625Z,55.86
2022-10-11T12:11:49.831Z,56.76
2022-10-11T12:14:22.748Z,54.95
2022-10-11T12:17:09.359Z,55.27
2022-10-11T12:19:38.042Z,54.73
2022-10-11T12:22:49.023Z,55.62
2022-10-11T12:25:18.553Z,55.82
2022-10-11T12:27:47.233Z,55.70
2022-10-11T12:30:47.751Z,54.75
2022-10-11T12:33:31.092Z,56.09
2022-10-11T12:36:01.520Z,56.54
2022-10-11T12:38:34.153Z,57.33
2022-10-11T12:41:10.062Z,55.14
2022-10-11T12:44:19.296Z,55.25
2022-10-11T12:47:31.838Z,55.89
2022-10-11T12:50:32.188Z,54.96
2022-10-11T12:53:23.597Z,54.77
2022-10-11T12:55:53.274Z,55.68
2022-10-11T12:58:22.711Z,57.12
2022-10-11T13:00:52.494Z,55.67
2022-10-11T13:03:41.312Z,57.75
2022-10-11T13:06:43.345Z,57.97
2022-10-11T13:09:10.159Z,58.93
2022-10-11T13:11:52.574Z,57.74
2022-10-11T13:14:26.032Z,58.08
2022-10-11T13:17:17.452Z,57.61
2022-10-11T13:19:44.215Z,57.45
2022-10-11T13:22:23.583Z,57.03
2022-10-11T13:24:50.318Z,55.42
2022-10-11T13:27:21.481Z,56.00
2022-10-11T13:29:50.240Z,55.91
2022-10-11T13:32:24.387Z,56.10
2022-10-11T13:34:58.380Z,56.42
2022-10-11T13:37:27.559Z,56.32
2022-10-11T13:39:55.939Z,56.55
2022-10-11T13:42:31.796Z,56.62
2022-10-11T13:44:59.861Z,57.63
2022-10-11T13:47:30.003Z,58.09
2022-10-11T13:50:23.339Z,57.59
2022-10-11T13:53:09.902Z,57.29
2022-10-11T13:55:42.453Z,57.02
2022-10-11T13:58:31.591Z,58.21
2022-10-11T14:01:02.073Z,59.34
2022-10-11T14:03:44.816Z,57.93
2022-10-11T14:06:11.647Z,58.00
2022-10-11T14:08:55.251Z,59.01
2022-10-11T14:11:39.722Z,59.33
2022-10-11T14:14:34.018Z,60.77
2022-10-11T14:17:19.347Z,61.39
2022-10-11T14:19:47.945Z,61.80
2022-10-11T14:22:18.529Z,61.18
2022-10-11T14:24:48.537Z,61.06
2022-10-11T14:27:19.317Z,60.75
2022-10-11T14:30:06.038Z,61.49
2022-10-11T14:32:34.688Z,61.87
2022-10-11T14:35:01.340Z,62.31
2022-10-11T14:37:27.967Z,62.64
2022-10-11T14:39:54.823Z,62.92
2022-10-11T14:42:21.470Z,63.23
2022-10-11T14:44:48.068Z,62.90
2022-10-11T14:47:17.993Z,63.55
2022-10-11T14:49:44.732Z,63.39
2022-10-11T14:52:13.114Z,64.32
2022-10-11T14:54:40.493Z,64.39
2022-10-11T14:57:07.120Z,64.13
2022-10-11T14:59:36.991Z,63.58
2022-10-11T15:02:06.464Z,64.21
2022-10-11T15:04:33.532Z,64.56
2022-10-11T15:07:00.484Z,65.28
2022-10-11T15:09:27.103Z,66.40
2022-10-11T15:11:54.799Z,67.10
2022-10-11T15:14:23.375Z,68.15
2022-10-11T15:16:50.336Z,68.48
2022-10-11T15:19:22.628Z,69.04
2022-10-11T15:21:49.833Z,70.05
2022-10-11T15:24:16.791Z,71.25
2022-10-11T15:26:44.053Z,72.07
2022-10-11T15:29:12.202Z,74.44
2022-10-11T15:31:39.630Z,76.43
2022-10-11T15:34:06.369Z,77.49
2022-10-11T15:36:33.036Z,77.50
2022-10-11T15:39:01.637Z,77.93
2022-10-11T15:41:28.494Z,78.61
2022-10-11T15:43:55.107Z,78.34
2022-10-11T15:46:22.977Z,78.24
2022-10-11T15:48:51.237Z,79.61
2022-10-11T15:51:18.216Z,80.43
2022-10-11T15:53:44.817Z,80.32
2022-10-11T15:56:16.267Z,80.36
2022-10-11T15:58:43.296Z,79.76
2022-10-11T16:01:18.889Z,80.10
2022-10-11T16:03:47.904Z,79.18
2022-10-11T16:06:15.223Z,80.00
2022-10-11T16:08:42.016Z,79.86
2022-10-11T16:11:09.917Z,79.91
2022-10-11T16:13:36.995Z,79.27
2022-10-11T16:16:08.781Z,80.12
2022-10-11T16:18:36.245Z,81.96
2022-10-11T16:21:10.644Z,81.93
2022-10-11T16:23:38.071Z,79.65
2022-10-11T16:26:07.708Z,79.46
2022-10-11T16:28:35.645Z,78.64
2022-10-11T16:31:14.280Z,78.00
2022-10-11T16:33:45.845Z,78.06
2022-10-11T16:36:36.770Z,78.32
2022-10-11T16:39:11.801Z,79.37
2022-10-11T16:41:38.636Z,79.88
2022-10-11T16:44:05.728Z,81.02
2022-10-11T16:46:33.331Z,83.03
2022-10-11T16:49:00.052Z,83.46
2022-10-11T16:51:26.660Z,82.38
2022-10-11T16:53:53.455Z,81.57
2022-10-11T16:56:22.581Z,85.10
2022-10-11T16:58:49.384Z,87.22
2022-10-11T17:01:16.089Z,90.64
2022-10-11T17:03:42.813Z,89.61
2022-10-11T17:06:09.817Z,91.29
2022-10-11T17:08:36.593Z,94.61
2022-10-11T17:11:03.582Z,92.92
2022-10-11T17:13:30.412Z,93.45
2022-10-11T17:15:57.096Z,94.86
2022-10-11T17:18:24.004Z,93.93
2022-10-11T17:20:50.618Z,96.32
2022-10-11T17:23:17.258Z,92.20
2022-10-11T17:25:47.286Z,93.39
2022-10-11T17:28:13.983Z,91.82
2022-10-11T17:30:42.100Z,92.48
2022-10-11T17:33:09.162Z,90.42
2022-10-11T17:35:35.791Z,91.73
2022-10-11T17:38:06.165Z,93.65
2022-10-11T17:40:33.235Z,89.58
2022-10-11T17:42:59.939Z,91.24
2022-10-11T17:45:26.645Z,89.34
2022-10-11T17:47:53.324Z,88.35
2022-10-11T17:50:19.980Z,87.59
2022-10-11T17:52:46.828Z,88.28
2022-10-11T17:55:13.734Z,86.85
2022-10-11T17:57:40.490Z,86.58
2022-10-11T18:00:07.796Z,86.87
2022-10-11T18:02:34.476Z,85.21
2022-10-11T18:05:01.160Z,84.70
2022-10-11T18:07:27.750Z,84.07
2022-10-11T18:09:54.464Z,84.36
2022-10-11T18:12:21.104Z,83.91
2022-10-11T18:14:47.789Z,84.12
2022-10-11T18:17:14.405Z,83.75
2022-10-11T18:19:40.984Z,84.53
2022-10-11T18:22:07.715Z,84.69
2022-10-11T18:24:34.660Z,84.38
2022-10-11T18:27:01.427Z,84.90
2022-10-11T18:29:28.069Z,84.38
2022-10-11T18:31:54.729Z,84.73
2022-10-11T18:34:21.353Z,85.46
2022-10-11T18:36:48.160Z,85.31
2022-10-11T18:39:15.742Z,84.97
2022-10-11T18:41:44.692Z,85.54
2022-10-11T18:44:14.307Z,86.13
2022-10-11T18:46:41.373Z,85.90
2022-10-11T18:49:08.838Z,86.62
2022-10-11T18:51:40.596Z,86.45
2022-10-11T18:54:08.721Z,86.67
2022-10-11T18:56:36.933Z,87.43
2022-10-11T18:59:04.752Z,86.91
2022-10-11T19:01:38.264Z,86.15
2022-10-11T19:04:06.927Z,86.00
2022-10-11T19:06:39.744Z,86.10
2022-10-11T19:09:15.091Z,86.19
2022-10-11T19:11:41.908Z,86.41
2022-10-11T19:14:11.629Z,86.26
2022-10-11T19:16:40.886Z,86.65
2022-10-11T19:19:09.392Z,86.84
2022-10-11T19:21:36.591Z,85.98
2022-10-11T19:24:03.610Z,86.35
2022-10-11T19:26:38.432Z,86.58
2022-10-11T19:29:09.247Z,85.01
2022-10-11T19:31:40.085Z,84.71
2022-10-11T19:34:06.810Z,84.64
2022-10-11T19:36:36.679Z,85.40
2022-10-11T19:39:05.982Z,85.26
2022-10-11T19:41:33.353Z,85.97
2022-10-11T19:44:00.092Z,85.03
2022-10-11T19:46:44.875Z,84.58
2022-10-11T19:49:17.492Z,85.80
2022-10-11T19:51:44.287Z,86.14
2022-10-11T19:54:13.601Z,86.09
2022-10-11T19:56:40.688Z,86.55
2022-10-11T19:59:07.486Z,86.82
2022-10-11T20:01:35.961Z,86.92
2022-10-11T20:04:07.510Z,86.23
2022-10-11T20:06:38.660Z,86.68
2022-10-11T20:09:28.465Z,86.41
2022-10-11T20:11:54.840Z,87.66
2022-10-11T20:14:21.522Z,87.86
2022-10-11T20:16:50.126Z,87.76
2022-10-11T20:19:17.371Z,87.85
2022-10-11T20:21:44.980Z,87.56
2022-10-11T20:24:11.830Z,87.26
2022-10-11T20:26:39.304Z,87.65
2022-10-11T20:29:06.065Z,86.37
2022-10-11T20:31:34.212Z,86.83
2022-10-11T20:34:02.571Z,87.20
2022-10-11T20:36:30.295Z,86.62
2022-10-11T20:38:58.528Z,86.31
2022-10-11T20:41:31.769Z,86.83
2022-10-11T20:44:00.065Z,86.42
2022-10-11T20:46:29.922Z,86.91
2022-10-11T20:49:01.622Z,87.83
2022-10-11T20:51:30.669Z,88.28
2022-10-11T20:53:58.342Z,88.90
2022-10-11T20:56:25.041Z,88.34
2022-10-11T20:58:53.535Z,87.20
2022-10-11T21:01:23.466Z,88.31
2022-10-11T21:03:50.497Z,87.11
2022-10-11T21:06:17.136Z,88.04
2022-10-11T21:08:43.832Z,87.73
2022-10-11T21:11:11.604Z,88.32
2022-10-11T21:13:38.565Z,88.26
2022-10-11T21:16:12.316Z,86.86
2022-10-11T21:18:39.421Z,87.46
2022-10-11T21:21:11.300Z,88.13
2022-10-11T21:23:38.758Z,88.79
2022-10-11T21:26:11.396Z,90.04
2022-10-11T21:28:39.396Z,90.38
2022-10-11T21:31:08.012Z,89.45
2022-10-11T21:33:35.379Z,89.62
2022-10-11T21:36:11.495Z,88.49
2022-10-11T21:38:38.429Z,89.03
2022-10-11T21:41:06.653Z,90.16
2022-10-11T21:43:35.780Z,91.51
2022-10-11T21:46:29.288Z,92.06
2022-10-11T21:49:08.650Z,92.02
2022-10-11T21:51:35.656Z,92.45
2022-10-11T21:54:02.350Z,92.46
2022-10-11T21:56:29.968Z,93.06
2022-10-11T21:58:56.975Z,93.28
2022-10-11T22:01:23.976Z,93.60
2022-10-11T22:03:52.419Z,93.46
2022-10-11T22:06:19.466Z,93.63
2022-10-11T22:08:46.101Z,93.12
2022-10-11T22:11:12.885Z,93.74
2022-10-11T22:13:39.896Z,93.64
2022-10-11T22:16:08.967Z,94.16
2022-10-11T22:18:35.691Z,94.08
2022-10-11T22:21:17.603Z,94.89
2022-10-11T22:23:46.718Z,95.75
2022-10-11T22:26:16.001Z,96.11
2022-10-11T22:28:43.370Z,96.45
2022-10-11T22:31:11.057Z,97.29
2022-10-11T22:33:38.094Z,97.94
2022-10-11T22:36:10.162Z,98.61
2022-10-11T22:38:38.763Z,99.26
2022-10-11T22:41:05.550Z,99.91
2022-10-11T22:43:32.605Z,100.00
2022-10-11T22:45:59.443Z,100.00
2022-10-11T22:48:26.429Z,100.00
2022-10-11T22:50:53.958Z,100.00
2022-10-11T22:53:20.968Z,100.00
2022-10-11T22:55:47.948Z,100.00
2022-10-11T22:58:14.940Z,100.00
2022-10-11T23:00:41.635Z,100.00
2022-10-11T23:03:08.552Z,100.00
2022-10-11T23:05:35.883Z,100.00
2022-10-11T23:08:02.520Z,100.00
2022-10-11T23:10:29.162Z,100.00
2022-10-11T23:12:55.787Z,100.00
2022-10-11T23:15:22.570Z,100.00
2022-10-11T23:17:49.185Z,100.00
2022-10-11T23:20:15.806Z,100.00
2022-10-11T23:22:42.425Z,100.00
2022-10-11T23:25:09.475Z,100.00
2022-10-11T23:27:36.334Z,100.00
2022-10-11T23:30:03.725Z,100.00
2022-10-11T23:32:30.374Z,100.00
2022-10-11T23:34:57.040Z,100.00
2022-10-11T23:37:23.769Z,100.00
2022-10-11T23:39:50.357Z,100.00
2022-10-11T23:42:16.948Z,100.00
2022-10-11T23:44:43.595Z,100.00
2022-10-11T23:47:10.257Z,100.00
2022-10-11T23:49:36.865Z,100.00
2022-10-11T23:52:03.580Z,100.00
2022-10-11T23:54:30.208Z,100.00
2022-10-11T23:56:57.156Z,100.00
2022-10-11T23:59:23.774Z,100.00
